sensor_id;sensor_type;location;lat;lon;timestamp;temperature;humidity
1083;DHT22;530;51.448;7.238;2022-07-12T00:02:01;16.70;99.90
1083;DHT22;530;51.448;7.238;2022-07-12T00:04:27;16.60;99.90
1083;DHT22;530;51.448;7.238;2022-07-12T00:06:53;16.60;99.90
1083;DHT22;530;51.448;7.238;2022-07-12T00:09:18;16.50;99.90
1083;DHT22;530;51.448;7.238;2022-07-12T00:11:44;16.50;99.90
1083;DHT22;530;51.448;7.238;2022-07-12T00:14:10;16.40;99.90
1083;DHT22;530;51.448;7.238;2022-07-12T00:16:36;16.40;99.90
1083;DHT22;530;51.448;7.238;2022-07-12T00:19:02;16.40;99.90
1083;DHT22;530;51.448;7.238;2022-07-12T00:21:27;16.30;99.90
1083;DHT22;530;51.448;7.238;2022-07-12T00:23:53;16.30;99.90
1083;DHT22;530;51.448;7.238;2022-07-12T00:26:19;16.20;99.90
1083;DHT22;530;51.448;7.238;2022-07-12T00:28:45;16.20;99.90
1083;DHT22;530;51.448;7.238;2022-07-12T00:31:11;16.10;99.90
1083;DHT22;530;51.448;7.238;2022-07-12T00:33:36;16.10;99.90
1083;DHT22;530;51.448;7.238;2022-07-12T00:36:02;16.00;99.90
1083;DHT22;530;51.448;7.238;2022-07-12T00:38:28;16.00;99.90
1083;DHT22;530;51.448;7.238;2022-07-12T00:40:54;15.90;99.90
1083;DHT22;530;51.448;7.238;2022-07-12T00:43:19;15.80;99.90
1083;DHT22;530;51.448;7.238;2022-07-12T00:45:45;15.80;99.90
1083;DHT22;530;51.448;7.238;2022-07-12T00:48:11;15.80;99.90
1083;DHT22;530;51.448;7.238;2022-07-12T00:50:37;15.80;99.90
1083;DHT22;530;51.448;7.238;2022-07-12T00:53:03;15.70;99.90
1083;DHT22;530;51.448;7.238;2022-07-12T00:55:29;15.70;99.90
1083;DHT22;530;51.448;7.238;2022-07-12T00:57:55;15.60;99.90
1083;DHT22;530;51.448;7.238;2022-07-12T01:00:23;15.70;99.90
1083;DHT22;530;51.448;7.238;2022-07-12T01:02:51;15.70;99.90
1083;DHT22;530;51.448;7.238;2022-07-12T01:05:17;15.70;99.90
1083;DHT22;530;51.448;7.238;2022-07-12T01:07:44;15.70;99.90
1083;DHT22;530;51.448;7.238;2022-07-12T01:10:10;15.60;99.90
1083;DHT22;530;51.448;7.238;2022-07-12T01:12:36;15.60;99.90
1083;DHT22;530;51.448;7.238;2022-07-12T01:15:05;15.60;99.90
1083;DHT22;530;51.448;7.238;2022-07-12T01:17:31;15.50;99.90
1083;DHT22;530;51.448;7.238;2022-07-12T01:19:58;15.50;99.90
1083;DHT22;530;51.448;7.238;2022-07-12T01:22:33;15.40;99.90
1083;DHT22;530;51.448;7.238;2022-07-12T01:25:00;15.40;99.90
1083;DHT22;530;51.448;7.238;2022-07-12T01:27:27;15.40;99.90
1083;DHT22;530;51.448;7.238;2022-07-12T01:29:54;15.30;99.90
1083;DHT22;530;51.448;7.238;2022-07-12T01:32:20;15.30;99.90
1083;DHT22;530;51.448;7.238;2022-07-12T01:34:57;15.30;99.90
1083;DHT22;530;51.448;7.238;2022-07-12T01:37:24;15.30;99.90
1083;DHT22;530;51.448;7.238;2022-07-12T01:39:52;15.30;99.90
1083;DHT22;530;51.448;7.238;2022-07-12T01:42:20;15.30;99.90
1083;DHT22;530;51.448;7.238;2022-07-12T01:44:46;15.30;99.90
1083;DHT22;530;51.448;7.238;2022-07-12T01:47:13;15.30;99.90
1083;DHT22;530;51.448;7.238;2022-07-12T01:49:38;15.20;99.90
1083;DHT22;530;51.448;7.238;2022-07-12T01:52:05;15.20;99.90
1083;DHT22;530;51.448;7.238;2022-07-12T01:54:30;15.10;99.90
1083;DHT22;530;51.448;7.238;2022-07-12T01:56:56;15.20;99.90
1083;DHT22;530;51.448;7.238;2022-07-12T01:59:22;15.10;99.90
1083;DHT22;530;51.448;7.238;2022-07-12T02:01:48;15.10;99.90
1083;DHT22;530;51.448;7.238;2022-07-12T02:04:18;15.00;99.90
1083;DHT22;530;51.448;7.238;2022-07-12T02:06:45;15.00;99.90
1083;DHT22;530;51.448;7.238;2022-07-12T02:09:12;14.90;99.90
1083;DHT22;530;51.448;7.238;2022-07-12T02:11:38;14.90;99.90
1083;DHT22;530;51.448;7.238;2022-07-12T02:14:04;14.90;99.90
1083;DHT22;530;51.448;7.238;2022-07-12T02:16:30;14.80;99.90
1083;DHT22;530;51.448;7.238;2022-07-12T02:18:55;14.80;99.90
1083;DHT22;530;51.448;7.238;2022-07-12T02:21:21;14.80;99.90
1083;DHT22;530;51.448;7.238;2022-07-12T02:23:47;14.80;99.90
1083;DHT22;530;51.448;7.238;2022-07-12T02:26:12;14.70;99.90
1083;DHT22;530;51.448;7.238;2022-07-12T02:28:38;14.70;99.90
1083;DHT22;530;51.448;7.238;2022-07-12T02:31:04;14.70;99.90
1083;DHT22;530;51.448;7.238;2022-07-12T02:33:30;14.60;99.90
1083;DHT22;530;51.448;7.238;2022-07-12T02:35:56;14.70;99.90
1083;DHT22;530;51.448;7.238;2022-07-12T02:38:22;14.60;99.90
1083;DHT22;530;51.448;7.238;2022-07-12T02:40:47;14.60;99.90
1083;DHT22;530;51.448;7.238;2022-07-12T02:43:23;14.70;99.90
1083;DHT22;530;51.448;7.238;2022-07-12T02:45:50;14.60;99.90
1083;DHT22;530;51.448;7.238;2022-07-12T02:48:16;14.60;99.90
1083;DHT22;530;51.448;7.238;2022-07-12T02:50:42;14.60;99.90
1083;DHT22;530;51.448;7.238;2022-07-12T02:53:09;14.60;99.90
1083;DHT22;530;51.448;7.238;2022-07-12T02:55:35;14.50;99.90
1083;DHT22;530;51.448;7.238;2022-07-12T02:58:02;14.60;99.90
1083;DHT22;530;51.448;7.238;2022-07-12T03:00:28;14.50;99.90
1083;DHT22;530;51.448;7.238;2022-07-12T03:02:54;14.50;99.90
1083;DHT22;530;51.448;7.238;2022-07-12T03:05:20;14.50;99.90
1083;DHT22;530;51.448;7.238;2022-07-12T03:07:46;14.50;99.90
1083;DHT22;530;51.448;7.238;2022-07-12T03:10:11;14.50;99.90
1083;DHT22;530;51.448;7.238;2022-07-12T03:12:37;14.50;99.90
1083;DHT22;530;51.448;7.238;2022-07-12T03:15:05;14.40;99.90
1083;DHT22;530;51.448;7.238;2022-07-12T03:17:34;14.40;99.90
1083;DHT22;530;51.448;7.238;2022-07-12T03:20:01;14.40;99.90
1083;DHT22;530;51.448;7.238;2022-07-12T03:22:27;14.40;99.90
1083;DHT22;530;51.448;7.238;2022-07-12T03:24:52;14.50;99.90
1083;DHT22;530;51.448;7.238;2022-07-12T03:27:19;14.50;99.90
1083;DHT22;530;51.448;7.238;2022-07-12T03:29:44;14.40;99.90
1083;DHT22;530;51.448;7.238;2022-07-12T03:32:10;14.40;99.90
1083;DHT22;530;51.448;7.238;2022-07-12T03:34:36;14.40;99.90
1083;DHT22;530;51.448;7.238;2022-07-12T03:37:03;14.40;99.90
1083;DHT22;530;51.448;7.238;2022-07-12T03:39:30;14.40;99.90
1083;DHT22;530;51.448;7.238;2022-07-12T03:41:55;14.40;99.90
1083;DHT22;530;51.448;7.238;2022-07-12T03:44:21;14.30;99.90
1083;DHT22;530;51.448;7.238;2022-07-12T03:46:47;14.30;99.90
1083;DHT22;530;51.448;7.238;2022-07-12T03:49:13;14.30;99.90
1083;DHT22;530;51.448;7.238;2022-07-12T03:51:39;14.30;99.90
1083;DHT22;530;51.448;7.238;2022-07-12T03:54:06;14.30;99.90
1083;DHT22;530;51.448;7.238;2022-07-12T03:56:34;14.30;99.90
1083;DHT22;530;51.448;7.238;2022-07-12T03:59:35;14.30;99.90
1083;DHT22;530;51.448;7.238;2022-07-12T04:02:00;14.30;99.90
1083;DHT22;530;51.448;7.238;2022-07-12T04:04:27;14.30;99.90
1083;DHT22;530;51.448;7.238;2022-07-12T04:06:53;14.30;99.90
1083;DHT22;530;51.448;7.238;2022-07-12T04:09:19;14.20;99.90
1083;DHT22;530;51.448;7.238;2022-07-12T04:11:45;14.30;99.90
1083;DHT22;530;51.448;7.238;2022-07-12T04:14:10;14.20;99.90
1083;DHT22;530;51.448;7.238;2022-07-12T04:16:36;14.20;99.90
1083;DHT22;530;51.448;7.238;2022-07-12T04:19:02;14.20;99.90
1083;DHT22;530;51.448;7.238;2022-07-12T04:21:28;14.30;99.90
1083;DHT22;530;51.448;7.238;2022-07-12T04:23:54;14.30;99.90
1083;DHT22;530;51.448;7.238;2022-07-12T04:26:19;14.20;99.90
1083;DHT22;530;51.448;7.238;2022-07-12T04:28:45;14.30;99.90
1083;DHT22;530;51.448;7.238;2022-07-12T04:31:11;14.30;99.90
1083;DHT22;530;51.448;7.238;2022-07-12T04:33:36;14.30;99.90
1083;DHT22;530;51.448;7.238;2022-07-12T04:36:02;14.30;99.90
1083;DHT22;530;51.448;7.238;2022-07-12T04:38:28;14.30;99.90
1083;DHT22;530;51.448;7.238;2022-07-12T04:40:54;14.40;99.90
1083;DHT22;530;51.448;7.238;2022-07-12T04:43:19;14.40;99.90
1083;DHT22;530;51.448;7.238;2022-07-12T04:45:45;14.50;99.90
1083;DHT22;530;51.448;7.238;2022-07-12T04:48:11;14.50;99.90
1083;DHT22;530;51.448;7.238;2022-07-12T04:50:37;14.60;99.90
1083;DHT22;530;51.448;7.238;2022-07-12T04:53:03;14.70;99.90
1083;DHT22;530;51.448;7.238;2022-07-12T04:55:29;14.70;99.90
1083;DHT22;530;51.448;7.238;2022-07-12T04:57:54;14.80;99.90
1083;DHT22;530;51.448;7.238;2022-07-12T05:00:21;14.90;99.90
1083;DHT22;530;51.448;7.238;2022-07-12T05:02:47;15.00;99.90
1083;DHT22;530;51.448;7.238;2022-07-12T05:05:12;15.10;99.90
1083;DHT22;530;51.448;7.238;2022-07-12T05:07:40;15.10;99.90
1083;DHT22;530;51.448;7.238;2022-07-12T05:10:06;15.30;99.90
1083;DHT22;530;51.448;7.238;2022-07-12T05:12:32;15.40;99.90
1083;DHT22;530;51.448;7.238;2022-07-12T05:14:57;15.50;99.90
1083;DHT22;530;51.448;7.238;2022-07-12T05:17:23;15.60;99.90
1083;DHT22;530;51.448;7.238;2022-07-12T05:19:49;15.80;99.90
1083;DHT22;530;51.448;7.238;2022-07-12T05:22:14;15.90;99.90
1083;DHT22;530;51.448;7.238;2022-07-12T05:24:40;16.00;99.90
1083;DHT22;530;51.448;7.238;2022-07-12T05:27:06;16.10;99.90
1083;DHT22;530;51.448;7.238;2022-07-12T05:29:31;16.20;99.90
1083;DHT22;530;51.448;7.238;2022-07-12T05:31:57;16.30;99.90
1083;DHT22;530;51.448;7.238;2022-07-12T05:34:23;16.30;99.90
1083;DHT22;530;51.448;7.238;2022-07-12T05:36:49;16.40;99.90
1083;DHT22;530;51.448;7.238;2022-07-12T05:39:15;16.60;99.90
1083;DHT22;530;51.448;7.238;2022-07-12T05:41:40;16.60;99.90
1083;DHT22;530;51.448;7.238;2022-07-12T05:44:06;16.70;99.90
1083;DHT22;530;51.448;7.238;2022-07-12T05:46:32;16.80;99.90
1083;DHT22;530;51.448;7.238;2022-07-12T05:48:57;16.90;99.90
1083;DHT22;530;51.448;7.238;2022-07-12T05:51:23;17.00;99.90
1083;DHT22;530;51.448;7.238;2022-07-12T05:54:07;17.10;99.90
1083;DHT22;530;51.448;7.238;2022-07-12T05:56:33;17.30;99.90
1083;DHT22;530;51.448;7.238;2022-07-12T05:58:58;17.50;99.90
1083;DHT22;530;51.448;7.238;2022-07-12T06:01:24;17.70;99.90
1083;DHT22;530;51.448;7.238;2022-07-12T06:03:50;17.90;99.90
1083;DHT22;530;51.448;7.238;2022-07-12T06:06:16;18.10;99.90
1083;DHT22;530;51.448;7.238;2022-07-12T06:08:41;18.30;99.90
1083;DHT22;530;51.448;7.238;2022-07-12T06:11:07;18.50;99.90
1083;DHT22;530;51.448;7.238;2022-07-12T06:13:33;18.50;99.90
1083;DHT22;530;51.448;7.238;2022-07-12T06:15:59;18.60;99.90
1083;DHT22;530;51.448;7.238;2022-07-12T06:18:25;18.80;99.90
1083;DHT22;530;51.448;7.238;2022-07-12T06:20:51;18.90;99.90
1083;DHT22;530;51.448;7.238;2022-07-12T06:23:17;19.00;99.90
1083;DHT22;530;51.448;7.238;2022-07-12T06:25:43;19.00;99.90
1083;DHT22;530;51.448;7.238;2022-07-12T06:28:10;19.20;99.90
1083;DHT22;530;51.448;7.238;2022-07-12T06:30:36;19.30;99.90
1083;DHT22;530;51.448;7.238;2022-07-12T06:33:02;19.50;99.90
1083;DHT22;530;51.448;7.238;2022-07-12T06:35:28;19.50;99.90
1083;DHT22;530;51.448;7.238;2022-07-12T06:37:54;19.70;99.90
1083;DHT22;530;51.448;7.238;2022-07-12T06:40:20;19.80;99.90
1083;DHT22;530;51.448;7.238;2022-07-12T06:42:45;19.90;99.90
1083;DHT22;530;51.448;7.238;2022-07-12T06:45:11;20.00;99.90
1083;DHT22;530;51.448;7.238;2022-07-12T06:47:37;20.10;99.90
1083;DHT22;530;51.448;7.238;2022-07-12T06:50:03;20.20;99.90
1083;DHT22;530;51.448;7.238;2022-07-12T06:52:29;20.30;99.90
1083;DHT22;530;51.448;7.238;2022-07-12T06:54:56;20.40;99.90
1083;DHT22;530;51.448;7.238;2022-07-12T06:57:22;20.40;99.90
1083;DHT22;530;51.448;7.238;2022-07-12T06:59:47;20.40;99.90
1083;DHT22;530;51.448;7.238;2022-07-12T07:02:14;20.50;99.90
1083;DHT22;530;51.448;7.238;2022-07-12T07:04:40;20.50;99.90
1083;DHT22;530;51.448;7.238;2022-07-12T07:07:06;20.60;99.90
1083;DHT22;530;51.448;7.238;2022-07-12T07:09:32;20.70;99.90
1083;DHT22;530;51.448;7.238;2022-07-12T07:11:59;20.80;99.90
1083;DHT22;530;51.448;7.238;2022-07-12T07:14:25;20.80;99.90
1083;DHT22;530;51.448;7.238;2022-07-12T07:16:53;20.80;99.90
1083;DHT22;530;51.448;7.238;2022-07-12T07:19:19;20.80;99.90
1083;DHT22;530;51.448;7.238;2022-07-12T07:21:44;20.80;99.90
1083;DHT22;530;51.448;7.238;2022-07-12T07:24:10;20.90;99.90
1083;DHT22;530;51.448;7.238;2022-07-12T07:26:37;21.00;99.90
1083;DHT22;530;51.448;7.238;2022-07-12T07:29:03;21.10;99.90
1083;DHT22;530;51.448;7.238;2022-07-12T07:31:47;21.10;99.90
1083;DHT22;530;51.448;7.238;2022-07-12T07:34:13;21.20;99.90
1083;DHT22;530;51.448;7.238;2022-07-12T07:36:38;21.20;99.90
1083;DHT22;530;51.448;7.238;2022-07-12T07:39:04;21.30;99.90
1083;DHT22;530;51.448;7.238;2022-07-12T07:41:30;21.30;99.90
1083;DHT22;530;51.448;7.238;2022-07-12T07:43:56;21.30;99.90
1083;DHT22;530;51.448;7.238;2022-07-12T07:46:22;21.40;99.90
1083;DHT22;530;51.448;7.238;2022-07-12T07:48:48;21.50;99.90
1083;DHT22;530;51.448;7.238;2022-07-12T07:51:13;21.50;99.90
1083;DHT22;530;51.448;7.238;2022-07-12T07:53:39;21.60;99.90
1083;DHT22;530;51.448;7.238;2022-07-12T07:56:05;21.70;99.90
1083;DHT22;530;51.448;7.238;2022-07-12T07:58:31;21.80;99.90
1083;DHT22;530;51.448;7.238;2022-07-12T08:00:56;21.80;99.90
1083;DHT22;530;51.448;7.238;2022-07-12T08:03:22;21.90;99.90
1083;DHT22;530;51.448;7.238;2022-07-12T08:05:48;21.90;99.90
1083;DHT22;530;51.448;7.238;2022-07-12T08:08:16;21.80;99.90
1083;DHT22;530;51.448;7.238;2022-07-12T08:10:43;21.80;99.90
1083;DHT22;530;51.448;7.238;2022-07-12T08:13:08;21.70;99.90
1083;DHT22;530;51.448;7.238;2022-07-12T08:15:34;21.70;99.90
1083;DHT22;530;51.448;7.238;2022-07-12T08:18:00;21.50;99.90
1083;DHT22;530;51.448;7.238;2022-07-12T08:20:26;21.50;99.90
1083;DHT22;530;51.448;7.238;2022-07-12T08:22:52;21.60;99.90
1083;DHT22;530;51.448;7.238;2022-07-12T08:25:18;21.60;99.90
1083;DHT22;530;51.448;7.238;2022-07-12T08:27:43;21.60;99.90
1083;DHT22;530;51.448;7.238;2022-07-12T08:30:09;21.60;99.90
1083;DHT22;530;51.448;7.238;2022-07-12T08:32:36;21.60;99.90
1083;DHT22;530;51.448;7.238;2022-07-12T08:35:03;21.60;99.90
1083;DHT22;530;51.448;7.238;2022-07-12T08:37:29;21.70;99.90
1083;DHT22;530;51.448;7.238;2022-07-12T08:39:54;21.80;99.90
1083;DHT22;530;51.448;7.238;2022-07-12T08:42:20;21.80;99.90
1083;DHT22;530;51.448;7.238;2022-07-12T08:44:56;22.00;99.90
1083;DHT22;530;51.448;7.238;2022-07-12T08:47:22;22.00;99.90
1083;DHT22;530;51.448;7.238;2022-07-12T08:50:10;22.20;99.90
1083;DHT22;530;51.448;7.238;2022-07-12T08:52:44;22.20;99.90
1083;DHT22;530;51.448;7.238;2022-07-12T08:57:48;22.30;99.90
1083;DHT22;530;51.448;7.238;2022-07-12T09:00:14;22.40;99.90
1083;DHT22;530;51.448;7.238;2022-07-12T09:05:11;22.60;99.90
1083;DHT22;530;51.448;7.238;2022-07-12T09:07:37;22.80;99.90
1083;DHT22;530;51.448;7.238;2022-07-12T09:10:04;22.80;99.90
1083;DHT22;530;51.448;7.238;2022-07-12T09:12:30;22.90;99.90
1083;DHT22;530;51.448;7.238;2022-07-12T09:15:20;23.00;99.90
1083;DHT22;530;51.448;7.238;2022-07-12T09:20:25;23.20;99.90
1083;DHT22;530;51.448;7.238;2022-07-12T09:22:56;23.20;99.90
1083;DHT22;530;51.448;7.238;2022-07-12T09:25:22;23.30;99.90
1083;DHT22;530;51.448;7.238;2022-07-12T09:27:58;23.30;99.90
1083;DHT22;530;51.448;7.238;2022-07-12T09:30:26;23.30;99.90
1083;DHT22;530;51.448;7.238;2022-07-12T09:33:03;23.20;99.90
1083;DHT22;530;51.448;7.238;2022-07-12T09:38:37;23.20;99.90
1083;DHT22;530;51.448;7.238;2022-07-12T09:41:07;23.30;99.90
1083;DHT22;530;51.448;7.238;2022-07-12T09:43:33;23.40;99.90
1083;DHT22;530;51.448;7.238;2022-07-12T09:45:59;23.50;99.90
1083;DHT22;530;51.448;7.238;2022-07-12T09:48:27;23.60;99.90
1083;DHT22;530;51.448;7.238;2022-07-12T09:50:56;23.60;99.90
1083;DHT22;530;51.448;7.238;2022-07-12T09:53:31;23.70;99.90
1083;DHT22;530;51.448;7.238;2022-07-12T09:56:03;23.80;99.90
1083;DHT22;530;51.448;7.238;2022-07-12T09:58:39;23.90;99.90
1083;DHT22;530;51.448;7.238;2022-07-12T10:01:06;24.00;99.90
1083;DHT22;530;51.448;7.238;2022-07-12T10:03:33;24.10;99.90
1083;DHT22;530;51.448;7.238;2022-07-12T10:06:01;24.10;99.90
1083;DHT22;530;51.448;7.238;2022-07-12T10:08:29;24.20;99.90
1083;DHT22;530;51.448;7.238;2022-07-12T10:10:56;24.20;99.90
1083;DHT22;530;51.448;7.238;2022-07-12T10:13:22;24.20;99.90
1083;DHT22;530;51.448;7.238;2022-07-12T10:15:49;24.20;99.90
1083;DHT22;530;51.448;7.238;2022-07-12T10:18:18;24.40;99.90
1083;DHT22;530;51.448;7.238;2022-07-12T10:20:48;24.50;99.90
1083;DHT22;530;51.448;7.238;2022-07-12T10:23:27;24.60;99.90
1083;DHT22;530;51.448;7.238;2022-07-12T10:25:55;24.70;99.90
1083;DHT22;530;51.448;7.238;2022-07-12T10:28:21;24.70;99.90
1083;DHT22;530;51.448;7.238;2022-07-12T10:30:51;24.80;99.90
1083;DHT22;530;51.448;7.238;2022-07-12T10:33:22;24.80;99.90
1083;DHT22;530;51.448;7.238;2022-07-12T10:36:05;24.80;99.90
1083;DHT22;530;51.448;7.238;2022-07-12T10:38:34;24.80;99.90
1083;DHT22;530;51.448;7.238;2022-07-12T10:41:20;24.90;99.90
1083;DHT22;530;51.448;7.238;2022-07-12T10:44:03;24.90;99.90
1083;DHT22;530;51.448;7.238;2022-07-12T10:46:32;25.00;99.90
1083;DHT22;530;51.448;7.238;2022-07-12T10:55:15;25.00;99.90
1083;DHT22;530;51.448;7.238;2022-07-12T10:57:42;25.10;99.90
1083;DHT22;530;51.448;7.238;2022-07-12T11:00:10;25.10;99.70
1083;DHT22;530;51.448;7.238;2022-07-12T11:02:37;25.10;99.90
1083;DHT22;530;51.448;7.238;2022-07-12T11:05:03;25.20;99.40
1083;DHT22;530;51.448;7.238;2022-07-12T11:07:29;25.10;99.30
1083;DHT22;530;51.448;7.238;2022-07-12T11:09:56;25.00;99.60
1083;DHT22;530;51.448;7.238;2022-07-12T11:12:29;25.10;99.60
1083;DHT22;530;51.448;7.238;2022-07-12T11:14:55;25.10;99.90
1083;DHT22;530;51.448;7.238;2022-07-12T11:17:32;25.20;99.90
1083;DHT22;530;51.448;7.238;2022-07-12T11:20:09;25.40;99.90
1083;DHT22;530;51.448;7.238;2022-07-12T11:22:37;25.50;99.00
1083;DHT22;530;51.448;7.238;2022-07-12T11:25:06;25.40;98.40
1083;DHT22;530;51.448;7.238;2022-07-12T11:27:32;25.50;98.90
1083;DHT22;530;51.448;7.238;2022-07-12T11:29:59;25.50;98.30
1083;DHT22;530;51.448;7.238;2022-07-12T11:32:42;25.50;98.30
1083;DHT22;530;51.448;7.238;2022-07-12T11:35:19;25.50;99.10
1083;DHT22;530;51.448;7.238;2022-07-12T11:37:53;25.60;98.80
1083;DHT22;530;51.448;7.238;2022-07-12T11:40:26;25.60;98.10
1083;DHT22;530;51.448;7.238;2022-07-12T11:42:57;25.70;99.50
1083;DHT22;530;51.448;7.238;2022-07-12T11:45:24;25.80;98.10
1083;DHT22;530;51.448;7.238;2022-07-12T11:47:50;25.80;97.00
1083;DHT22;530;51.448;7.238;2022-07-12T11:50:18;25.80;96.60
1083;DHT22;530;51.448;7.238;2022-07-12T11:52:44;25.80;96.40
1083;DHT22;530;51.448;7.238;2022-07-12T11:55:10;25.80;97.40
1083;DHT22;530;51.448;7.238;2022-07-12T11:57:36;25.90;99.50
1083;DHT22;530;51.448;7.238;2022-07-12T12:00:18;26.00;98.90
1083;DHT22;530;51.448;7.238;2022-07-12T12:02:45;26.10;97.40
1083;DHT22;530;51.448;7.238;2022-07-12T12:05:11;26.10;97.70
1083;DHT22;530;51.448;7.238;2022-07-12T12:07:37;26.20;96.80
1083;DHT22;530;51.448;7.238;2022-07-12T12:12:51;26.20;96.00
1083;DHT22;530;51.448;7.238;2022-07-12T12:15:19;26.20;96.80
1083;DHT22;530;51.448;7.238;2022-07-12T12:18:01;26.30;98.40
1083;DHT22;530;51.448;7.238;2022-07-12T12:22:55;26.40;97.80
1083;DHT22;530;51.448;7.238;2022-07-12T12:25:21;26.50;95.50
1083;DHT22;530;51.448;7.238;2022-07-12T12:27:58;26.50;93.60
1083;DHT22;530;51.448;7.238;2022-07-12T12:30:47;26.50;93.70
1083;DHT22;530;51.448;7.238;2022-07-12T12:33:32;26.60;92.80
1083;DHT22;530;51.448;7.238;2022-07-12T12:36:11;26.60;94.00
1083;DHT22;530;51.448;7.238;2022-07-12T12:38:37;26.70;93.70
1083;DHT22;530;51.448;7.238;2022-07-12T12:41:03;26.70;88.90
1083;DHT22;530;51.448;7.238;2022-07-12T12:43:30;26.60;87.40
1083;DHT22;530;51.448;7.238;2022-07-12T12:45:57;26.50;90.60
1083;DHT22;530;51.448;7.238;2022-07-12T12:48:25;26.40;88.10
1083;DHT22;530;51.448;7.238;2022-07-12T12:51:25;26.40;87.50
1083;DHT22;530;51.448;7.238;2022-07-12T12:53:54;26.30;87.40
1083;DHT22;530;51.448;7.238;2022-07-12T12:56:20;26.20;87.60
1083;DHT22;530;51.448;7.238;2022-07-12T12:58:48;26.20;85.40
1083;DHT22;530;51.448;7.238;2022-07-12T13:01:14;26.30;89.00
1083;DHT22;530;51.448;7.238;2022-07-12T13:03:40;26.30;88.40
1083;DHT22;530;51.448;7.238;2022-07-12T13:06:05;26.30;88.40
1083;DHT22;530;51.448;7.238;2022-07-12T13:08:31;26.30;88.30
1083;DHT22;530;51.448;7.238;2022-07-12T13:10:58;26.40;88.20
1083;DHT22;530;51.448;7.238;2022-07-12T13:13:42;26.50;91.90
1083;DHT22;530;51.448;7.238;2022-07-12T13:16:08;26.60;92.50
1083;DHT22;530;51.448;7.238;2022-07-12T13:18:34;26.70;90.90
1083;DHT22;530;51.448;7.238;2022-07-12T13:20:59;26.80;90.10
1083;DHT22;530;51.448;7.238;2022-07-12T13:23:25;26.80;90.60
1083;DHT22;530;51.448;7.238;2022-07-12T13:25:51;26.80;90.30
1083;DHT22;530;51.448;7.238;2022-07-12T13:28:17;26.90;89.70
1083;DHT22;530;51.448;7.238;2022-07-12T13:30:43;27.00;89.40
1083;DHT22;530;51.448;7.238;2022-07-12T13:33:08;26.90;91.40
1083;DHT22;530;51.448;7.238;2022-07-12T13:35:34;27.00;90.10
1083;DHT22;530;51.448;7.238;2022-07-12T13:38:01;27.00;90.60
1083;DHT22;530;51.448;7.238;2022-07-12T13:40:26;27.00;90.90
1083;DHT22;530;51.448;7.238;2022-07-12T13:42:53;27.10;90.60
1083;DHT22;530;51.448;7.238;2022-07-12T13:45:21;27.10;90.30
1083;DHT22;530;51.448;7.238;2022-07-12T13:47:47;27.10;89.80
1083;DHT22;530;51.448;7.238;2022-07-12T13:50:15;27.10;87.30
1083;DHT22;530;51.448;7.238;2022-07-12T13:52:42;27.10;90.50
1083;DHT22;530;51.448;7.238;2022-07-12T13:55:09;27.20;91.10
1083;DHT22;530;51.448;7.238;2022-07-12T13:57:37;27.30;87.50
1083;DHT22;530;51.448;7.238;2022-07-12T14:00:07;27.20;88.90
1083;DHT22;530;51.448;7.238;2022-07-12T14:02:42;27.30;89.80
1083;DHT22;530;51.448;7.238;2022-07-12T14:05:09;27.30;87.40
1083;DHT22;530;51.448;7.238;2022-07-12T14:07:37;27.40;85.90
1083;DHT22;530;51.448;7.238;2022-07-12T14:10:03;27.30;82.80
1083;DHT22;530;51.448;7.238;2022-07-12T14:12:29;27.30;84.60
1083;DHT22;530;51.448;7.238;2022-07-12T14:14:55;27.30;87.40
1083;DHT22;530;51.448;7.238;2022-07-12T14:17:44;27.30;87.70
1083;DHT22;530;51.448;7.238;2022-07-12T14:20:14;27.30;84.50
1083;DHT22;530;51.448;7.238;2022-07-12T14:22:40;27.20;86.00
1083;DHT22;530;51.448;7.238;2022-07-12T14:25:07;27.10;86.80
1083;DHT22;530;51.448;7.238;2022-07-12T14:27:34;27.20;89.70
1083;DHT22;530;51.448;7.238;2022-07-12T14:30:01;27.30;91.00
1083;DHT22;530;51.448;7.238;2022-07-12T14:32:26;27.30;90.00
1083;DHT22;530;51.448;7.238;2022-07-12T14:34:52;27.30;85.30
1083;DHT22;530;51.448;7.238;2022-07-12T14:37:18;27.30;89.40
1083;DHT22;530;51.448;7.238;2022-07-12T14:39:44;27.30;89.10
1083;DHT22;530;51.448;7.238;2022-07-12T14:42:09;27.40;88.30
1083;DHT22;530;51.448;7.238;2022-07-12T14:44:35;27.50;90.20
1083;DHT22;530;51.448;7.238;2022-07-12T14:47:02;27.60;89.70
1083;DHT22;530;51.448;7.238;2022-07-12T14:49:28;27.60;88.80
1083;DHT22;530;51.448;7.238;2022-07-12T14:51:54;27.60;88.80
1083;DHT22;530;51.448;7.238;2022-07-12T14:54:21;27.60;85.20
1083;DHT22;530;51.448;7.238;2022-07-12T14:56:46;27.50;82.10
1083;DHT22;530;51.448;7.238;2022-07-12T14:59:12;27.40;83.80
1083;DHT22;530;51.448;7.238;2022-07-12T15:01:38;27.40;83.10
1083;DHT22;530;51.448;7.238;2022-07-12T15:04:04;27.40;84.10
1083;DHT22;530;51.448;7.238;2022-07-12T15:06:30;27.40;82.10
1083;DHT22;530;51.448;7.238;2022-07-12T15:08:56;27.40;84.00
1083;DHT22;530;51.448;7.238;2022-07-12T15:11:22;27.30;84.50
1083;DHT22;530;51.448;7.238;2022-07-12T15:13:48;27.30;85.30
1083;DHT22;530;51.448;7.238;2022-07-12T15:16:14;27.30;87.00
1083;DHT22;530;51.448;7.238;2022-07-12T15:18:40;27.20;85.60
1083;DHT22;530;51.448;7.238;2022-07-12T15:21:06;27.20;86.60
1083;DHT22;530;51.448;7.238;2022-07-12T15:23:31;27.20;87.90
1083;DHT22;530;51.448;7.238;2022-07-12T15:25:58;27.10;87.80
1083;DHT22;530;51.448;7.238;2022-07-12T15:28:28;27.10;89.90
1083;DHT22;530;51.448;7.238;2022-07-12T15:30:57;27.10;90.10
1083;DHT22;530;51.448;7.238;2022-07-12T15:33:23;27.00;88.50
1083;DHT22;530;51.448;7.238;2022-07-12T15:35:52;27.00;88.20
1083;DHT22;530;51.448;7.238;2022-07-12T15:38:18;27.00;88.60
1083;DHT22;530;51.448;7.238;2022-07-12T15:40:44;27.00;88.20
1083;DHT22;530;51.448;7.238;2022-07-12T15:43:10;27.00;88.10
1083;DHT22;530;51.448;7.238;2022-07-12T15:45:39;27.00;89.10
1083;DHT22;530;51.448;7.238;2022-07-12T15:48:05;27.00;90.50
1083;DHT22;530;51.448;7.238;2022-07-12T15:50:31;26.90;89.40
1083;DHT22;530;51.448;7.238;2022-07-12T15:52:56;27.00;90.60
1083;DHT22;530;51.448;7.238;2022-07-12T15:55:41;27.00;91.40
1083;DHT22;530;51.448;7.238;2022-07-12T15:58:06;27.00;90.90
1083;DHT22;530;51.448;7.238;2022-07-12T16:00:35;26.90;90.20
1083;DHT22;530;51.448;7.238;2022-07-12T16:03:01;26.90;90.70
1083;DHT22;530;51.448;7.238;2022-07-12T16:05:27;26.90;91.50
1083;DHT22;530;51.448;7.238;2022-07-12T16:07:53;26.90;90.20
1083;DHT22;530;51.448;7.238;2022-07-12T16:10:19;26.90;90.80
1083;DHT22;530;51.448;7.238;2022-07-12T16:12:45;26.80;90.90
1083;DHT22;530;51.448;7.238;2022-07-12T16:15:11;26.80;91.30
1083;DHT22;530;51.448;7.238;2022-07-12T16:17:37;26.80;91.90
1083;DHT22;530;51.448;7.238;2022-07-12T16:20:04;26.80;91.10
1083;DHT22;530;51.448;7.238;2022-07-12T16:22:30;26.80;91.20
1083;DHT22;530;51.448;7.238;2022-07-12T16:24:56;26.80;90.80
1083;DHT22;530;51.448;7.238;2022-07-12T16:27:22;26.80;90.80
1083;DHT22;530;51.448;7.238;2022-07-12T16:29:48;26.80;90.70
1083;DHT22;530;51.448;7.238;2022-07-12T16:32:13;26.80;91.00
1083;DHT22;530;51.448;7.238;2022-07-12T16:34:40;26.80;90.10
1083;DHT22;530;51.448;7.238;2022-07-12T16:37:06;26.70;90.10
1083;DHT22;530;51.448;7.238;2022-07-12T16:39:32;26.70;90.30
1083;DHT22;530;51.448;7.238;2022-07-12T16:41:58;26.60;90.80